createdAt,value
2024-02-06T00:02:15.348Z,99585.20
2024-02-06T00:04:48.135Z,99588.00
2024-02-06T00:07:28.824Z,99584.80
2024-02-06T00:10:05.602Z,99577.20
2024-02-06T00:12:38.347Z,99574.60
2024-02-06T00:15:12.805Z,99578.80
2024-02-06T00:17:45.501Z,99574.20
2024-02-06T00:20:21.193Z,99573.20
2024-02-06T00:22:54.092Z,99578.40
2024-02-06T00:25:26.918Z,99580.00
2024-02-06T00:28:01.280Z,99566.60
2024-02-06T00:30:34.084Z,99573.00
2024-02-06T00:33:07.093Z,99570.20
2024-02-06T00:35:39.830Z,99570.20
2024-02-06T00:38:13.330Z,99572.40
2024-02-06T00:40:46.111Z,99568.20
2024-02-06T00:43:18.837Z,99566.00
2024-02-06T00:45:52.949Z,99556.60
2024-02-06T00:48:26.310Z,99566.80
2024-02-06T00:50:59.177Z,99563.40
2024-02-06T00:53:31.947Z,99568.40
2024-02-06T00:56:07.662Z,99560.20
2024-02-06T00:58:42.450Z,99566.80
2024-02-06T01:01:15.326Z,99564.00
2024-02-06T01:03:48.060Z,99558.00
2024-02-06T01:06:23.035Z,99551.20
2024-02-06T01:08:55.699Z,99555.20
2024-02-06T01:11:28.378Z,99549.20
2024-02-06T01:14:01.078Z,99550.80
2024-02-06T01:16:33.795Z,99545.00
2024-02-06T01:19:06.513Z,99552.20
2024-02-06T01:21:39.482Z,99546.00
2024-02-06T01:24:12.279Z,99551.80
2024-02-06T01:26:45.011Z,99546.00
2024-02-06T01:29:17.864Z,99543.60
2024-02-06T01:31:50.628Z,99541.60
2024-02-06T01:34:23.691Z,99547.20
2024-02-06T01:36:56.556Z,99544.40
2024-02-06T01:39:29.131Z,99549.40
2024-02-06T01:42:04.581Z,99536.80
2024-02-06T01:44:37.540Z,99536.00
2024-02-06T01:47:12.904Z,99537.00
2024-02-06T01:49:47.052Z,99534.00
2024-02-06T01:52:20.009Z,99538.80
2024-02-06T01:54:52.730Z,99540.00
2024-02-06T01:57:25.760Z,99541.40
2024-02-06T01:59:59.161Z,99544.80
2024-02-06T02:02:32.504Z,99545.20
2024-02-06T02:05:08.251Z,99538.20
2024-02-06T02:07:42.520Z,99535.60
2024-02-06T02:10:15.697Z,99532.60
2024-02-06T02:12:48.696Z,99531.20
2024-02-06T02:15:21.500Z,99535.20
2024-02-06T02:17:55.939Z,99535.20
2024-02-06T02:20:28.577Z,99537.20
2024-02-06T02:23:01.214Z,99535.20
2024-02-06T02:25:34.205Z,99533.80
2024-02-06T02:28:08.091Z,99535.40
2024-02-06T02:30:41.457Z,99530.60
2024-02-06T02:33:14.417Z,99541.60
2024-02-06T02:35:47.232Z,99541.20
2024-02-06T02:38:21.430Z,99543.40
2024-02-06T02:40:54.418Z,99545.40
2024-02-06T02:43:27.125Z,99532.20
2024-02-06T02:46:00.189Z,99539.80
2024-02-06T02:48:34.119Z,99541.80
2024-02-06T02:51:06.938Z,99533.00
2024-02-06T02:53:39.565Z,99537.20
2024-02-06T02:56:12.276Z,99539.80
2024-02-06T02:58:45.068Z,99539.60
2024-02-06T03:01:18.200Z,99533.60
2024-02-06T03:03:51.046Z,99539.00
2024-02-06T03:06:24.317Z,99542.00
2024-02-06T03:08:57.865Z,99545.40
2024-02-06T03:11:31.500Z,99544.20
2024-02-06T03:14:04.208Z,99540.40
2024-02-06T03:16:37.024Z,99541.00
2024-02-06T03:19:09.869Z,99542.60
2024-02-06T03:21:42.570Z,99549.40
2024-02-06T03:24:15.246Z,99552.40
2024-02-06T03:26:49.125Z,99548.20
2024-02-06T03:29:21.906Z,99555.60
2024-02-06T03:31:54.621Z,99549.20
2024-02-06T03:34:27.381Z,99554.80
2024-02-06T03:37:00.141Z,99555.20
2024-02-06T03:39:32.874Z,99562.20
2024-02-06T03:42:05.966Z,99554.00
2024-02-06T03:44:38.664Z,99542.40
2024-02-06T03:47:11.414Z,99554.40
2024-02-06T03:49:44.117Z,99550.00
2024-02-06T03:52:16.882Z,99551.60
2024-02-06T03:54:49.615Z,99549.40
2024-02-06T03:57:22.295Z,99547.60
2024-02-06T03:59:54.914Z,99545.00
2024-02-06T04:02:27.544Z,99549.40
2024-02-06T04:05:00.314Z,99555.00
2024-02-06T04:07:33.177Z,99550.80
2024-02-06T04:10:07.432Z,99556.80
2024-02-06T04:12:40.161Z,99553.00
2024-02-06T04:15:13.716Z,99562.00
2024-02-06T04:17:46.382Z,99557.60
2024-02-06T04:20:19.312Z,99556.80
2024-02-06T04:22:51.969Z,99568.00
2024-02-06T04:25:25.117Z,99568.40
2024-02-06T04:27:58.701Z,99565.00
2024-02-06T04:30:31.369Z,99565.00
2024-02-06T04:33:05.422Z,99562.40
2024-02-06T04:35:38.265Z,99565.80
2024-02-06T04:38:11.093Z,99566.80
2024-02-06T04:40:44.114Z,99567.60
2024-02-06T04:43:17.719Z,99559.00
2024-02-06T04:45:50.595Z,99558.00
2024-02-06T04:48:23.763Z,99555.80
2024-02-06T04:50:56.374Z,99553.80
2024-02-06T04:53:29.443Z,99554.20
2024-02-06T04:56:02.271Z,99561.60
2024-02-06T04:58:35.224Z,99548.60
2024-02-06T05:01:08.529Z,99549.40
2024-02-06T05:03:41.306Z,99539.40
2024-02-06T05:06:14.165Z,99543.00
2024-02-06T05:08:46.972Z,99533.20
2024-02-06T05:11:19.581Z,99529.20
2024-02-06T05:13:52.363Z,99534.00
2024-02-06T05:16:25.210Z,99519.80
2024-02-06T05:18:58.260Z,99518.40
2024-02-06T05:21:33.685Z,99515.80
2024-02-06T05:24:06.904Z,99504.40
2024-02-06T05:26:39.644Z,99503.00
2024-02-06T05:29:12.343Z,99501.40
2024-02-06T05:31:45.396Z,99488.60
2024-02-06T05:34:18.285Z,99502.20
2024-02-06T05:36:51.021Z,99500.60
2024-02-06T05:39:23.703Z,99507.00
2024-02-06T05:41:57.274Z,99499.40
2024-02-06T05:44:29.984Z,99500.40
2024-02-06T05:47:02.740Z,99495.40
2024-02-06T05:49:35.458Z,99496.40
2024-02-06T05:52:09.187Z,99493.20
2024-02-06T05:54:44.570Z,99497.20
2024-02-06T05:57:17.286Z,99497.40
2024-02-06T05:59:50.525Z,99487.00
2024-02-06T06:02:23.332Z,99487.60
2024-02-06T06:04:56.147Z,99490.00
2024-02-06T06:07:29.155Z,99484.80
2024-02-06T06:10:02.087Z,99481.40
2024-02-06T06:12:34.894Z,99488.80
2024-02-06T06:15:08.604Z,99485.40
2024-02-06T06:17:41.363Z,99490.60
2024-02-06T06:20:15.148Z,99484.00
2024-02-06T06:22:47.868Z,99486.00
2024-02-06T06:25:20.590Z,99485.80
2024-02-06T06:27:54.064Z,99484.00
2024-02-06T06:30:26.759Z,99485.40
2024-02-06T06:32:59.827Z,99482.00
2024-02-06T06:35:32.560Z,99493.20
2024-02-06T06:38:05.727Z,99486.00
2024-02-06T06:40:38.446Z,99484.80
2024-02-06T06:43:12.465Z,99498.40
2024-02-06T06:45:45.345Z,99487.20
2024-02-06T06:48:18.315Z,99477.80
2024-02-06T06:50:51.093Z,99491.80
2024-02-06T06:53:23.779Z,99476.40
2024-02-06T06:55:56.423Z,99487.00
2024-02-06T06:58:29.133Z,99489.00
2024-02-06T07:01:02.223Z,99495.00
2024-02-06T07:03:35.252Z,99499.40
2024-02-06T07:06:09.577Z,99487.20
2024-02-06T07:08:42.412Z,99503.20
2024-02-06T07:11:15.029Z,99495.40
2024-02-06T07:13:47.898Z,99494.00
2024-02-06T07:16:20.659Z,99495.00
2024-02-06T07:18:53.769Z,99493.00
2024-02-06T07:21:26.608Z,99490.20
2024-02-06T07:23:59.354Z,99499.80
2024-02-06T07:26:32.846Z,99497.80
2024-02-06T07:29:05.588Z,99503.00
2024-02-06T07:31:38.336Z,99496.00
2024-02-06T07:34:11.295Z,99487.00
2024-02-06T07:36:44.359Z,99504.80
2024-02-06T07:39:17.110Z,99488.80
2024-02-06T07:41:49.845Z,99494.00
2024-02-06T07:44:23.262Z,99496.80
2024-02-06T07:46:56.191Z,99500.80
2024-02-06T07:49:29.156Z,99495.60
2024-02-06T07:52:05.342Z,99488.40
2024-02-06T07:54:40.095Z,99488.80
2024-02-06T07:57:13.486Z,99492.20
2024-02-06T07:59:48.058Z,99493.20
2024-02-06T08:02:21.283Z,99495.20
2024-02-06T08:04:55.898Z,99501.00
2024-02-06T08:07:29.639Z,99493.40
2024-02-06T08:10:02.592Z,99486.80
2024-02-06T08:12:35.345Z,99503.80
2024-02-06T08:15:10.082Z,99497.60
2024-02-06T08:17:44.107Z,99494.40
2024-02-06T08:20:21.616Z,99501.00
2024-02-06T08:22:55.585Z,99514.00
2024-02-06T08:25:31.185Z,99501.80
2024-02-06T08:28:06.201Z,99502.20
2024-02-06T08:30:39.028Z,99505.60
2024-02-06T08:33:11.726Z,99489.00
2024-02-06T08:35:44.591Z,99494.00
2024-02-06T08:38:17.738Z,99499.20
2024-02-06T08:40:50.861Z,99496.80
2024-02-06T08:43:23.820Z,99498.40
2024-02-06T08:45:56.806Z,99491.60
2024-02-06T08:48:33.074Z,99496.00
2024-02-06T08:51:09.461Z,99499.80
2024-02-06T08:53:42.300Z,99501.00
2024-02-06T08:56:16.728Z,99500.20
2024-02-06T08:58:49.449Z,99504.20
2024-02-06T09:01:24.574Z,99495.60
2024-02-06T09:04:03.248Z,99496.20
2024-02-06T09:06:38.694Z,99492.40
2024-02-06T09:09:12.870Z,99486.40
2024-02-06T09:11:45.475Z,99482.20
2024-02-06T09:14:18.226Z,99480.60
2024-02-06T09:16:51.010Z,99479.40
2024-02-06T09:19:23.876Z,99481.40
2024-02-06T09:21:56.660Z,99487.20
2024-02-06T09:24:29.346Z,99495.20
2024-02-06T09:27:02.183Z,99506.40
2024-02-06T09:29:36.160Z,99487.40
2024-02-06T09:32:09.471Z,99481.00
2024-02-06T09:34:42.505Z,99485.20
2024-02-06T09:37:15.261Z,99490.00
2024-02-06T09:39:48.011Z,99485.80
2024-02-06T09:42:21.728Z,99489.40
2024-02-06T09:44:55.665Z,99482.00
2024-02-06T09:47:30.077Z,99481.40
2024-02-06T09:50:05.630Z,99478.20
2024-02-06T09:52:39.506Z,99483.80
2024-02-06T09:55:16.412Z,99475.20
2024-02-06T09:57:52.010Z,99479.80
2024-02-06T10:00:26.281Z,99471.80
2024-02-06T10:03:01.468Z,99483.40
2024-02-06T10:05:40.372Z,99473.00
2024-02-06T10:08:15.908Z,99481.80
2024-02-06T10:10:51.416Z,99476.60
2024-02-06T10:13:25.102Z,99476.40
2024-02-06T10:15:58.015Z,99476.60
2024-02-06T10:18:31.064Z,99467.00
2024-02-06T10:21:04.260Z,99469.80
2024-02-06T10:23:37.017Z,99450.00
2024-02-06T10:26:09.901Z,99457.40
2024-02-06T10:28:42.658Z,99463.80
2024-02-06T10:31:16.847Z,99462.20
2024-02-06T10:33:49.670Z,99456.20
2024-02-06T10:36:23.764Z,99467.40
2024-02-06T10:39:01.312Z,99457.40
2024-02-06T10:41:50.573Z,99445.00
2024-02-06T10:44:30.047Z,99439.60
2024-02-06T10:47:07.114Z,99444.20
2024-02-06T10:49:39.981Z,99441.20
2024-02-06T10:52:13.516Z,99438.40
2024-02-06T10:54:46.264Z,99433.80
2024-02-06T10:57:24.055Z,99433.20
2024-02-06T11:00:08.937Z,99420.20
2024-02-06T11:02:44.518Z,99428.60
2024-02-06T11:05:24.799Z,99423.40
2024-02-06T11:08:01.397Z,99421.60
2024-02-06T11:10:43.309Z,99411.20
2024-02-06T11:13:22.395Z,99410.40
2024-02-06T11:15:56.263Z,99409.80
2024-02-06T11:18:32.356Z,99410.60
2024-02-06T11:21:11.193Z,99397.20
2024-02-06T11:23:44.199Z,99404.00
2024-02-06T11:26:17.742Z,99401.00
2024-02-06T11:28:51.496Z,99399.00
2024-02-06T11:31:24.928Z,99400.60
2024-02-06T11:33:58.519Z,99400.80
2024-02-06T11:36:36.767Z,99403.60
2024-02-06T11:39:14.113Z,99396.60
2024-02-06T11:41:46.879Z,99383.00
2024-02-06T11:44:25.010Z,99395.00
2024-02-06T11:47:02.252Z,99392.40
2024-02-06T11:49:35.423Z,99372.40
2024-02-06T11:52:10.746Z,99385.60
2024-02-06T11:54:44.201Z,99383.20
2024-02-06T11:57:16.973Z,99371.80
2024-02-06T11:59:50.191Z,99373.60
2024-02-06T12:02:22.974Z,99373.00
2024-02-06T12:05:04.787Z,99374.40
2024-02-06T12:07:37.973Z,99380.40
2024-02-06T12:10:12.355Z,99381.60
2024-02-06T12:12:45.965Z,99378.60
2024-02-06T12:15:22.853Z,99367.60
2024-02-06T12:17:55.563Z,99375.20
2024-02-06T12:20:28.904Z,99366.00
2024-02-06T12:23:08.411Z,99375.00
2024-02-06T12:25:43.600Z,99370.60
2024-02-06T12:28:17.735Z,99363.60
2024-02-06T12:30:52.468Z,99356.60
2024-02-06T12:33:26.050Z,99362.00
2024-02-06T12:36:01.546Z,99359.00
2024-02-06T12:38:34.782Z,99354.60
2024-02-06T12:41:08.011Z,99355.20
2024-02-06T12:43:40.706Z,99344.40
2024-02-06T12:46:13.738Z,99357.40
2024-02-06T12:48:46.625Z,99351.00
2024-02-06T12:51:20.170Z,99350.40
2024-02-06T12:53:52.781Z,99339.00
2024-02-06T12:56:28.028Z,99335.20
2024-02-06T12:59:06.437Z,99337.40
2024-02-06T13:01:46.192Z,99338.80
2024-02-06T13:04:28.808Z,99343.20
2024-02-06T13:07:01.637Z,99339.00
2024-02-06T13:09:37.120Z,99339.40
2024-02-06T13:12:11.713Z,99329.80
2024-02-06T13:14:44.443Z,99335.60
2024-02-06T13:17:24.410Z,99331.20
2024-02-06T13:20:11.350Z,99340.80
2024-02-06T13:22:45.277Z,99337.40
2024-02-06T13:25:18.153Z,99327.00
2024-02-06T13:27:50.951Z,99331.80
2024-02-06T13:30:23.698Z,99330.20
2024-02-06T13:32:56.572Z,99332.00
2024-02-06T13:35:30.005Z,99335.40
2024-02-06T13:38:03.170Z,99335.80
2024-02-06T13:40:36.453Z,99332.80
2024-02-06T13:43:09.625Z,99330.40
2024-02-06T13:45:42.426Z,99321.20
2024-02-06T13:48:15.215Z,99320.80
2024-02-06T13:50:49.255Z,99322.40
2024-02-06T13:53:21.923Z,99313.00
2024-02-06T13:55:54.806Z,99315.40
2024-02-06T13:58:27.654Z,99325.00
2024-02-06T14:01:00.416Z,99318.60
2024-02-06T14:03:33.266Z,99306.60
2024-02-06T14:06:06.193Z,99305.60
2024-02-06T14:08:38.893Z,99300.00
2024-02-06T14:11:12.227Z,99305.00
2024-02-06T14:13:44.998Z,99307.80
2024-02-06T14:16:17.767Z,99286.40
2024-02-06T14:18:50.573Z,99294.00
2024-02-06T14:21:23.422Z,99288.40
2024-02-06T14:23:56.193Z,99292.00
2024-02-06T14:26:28.929Z,99290.40
2024-02-06T14:29:01.788Z,99294.00
2024-02-06T14:31:34.667Z,99290.40
2024-02-06T14:34:07.715Z,99285.00
2024-02-06T14:36:40.555Z,99285.40
2024-02-06T14:39:13.422Z,99289.80
2024-02-06T14:41:46.659Z,99276.80
2024-02-06T14:44:19.943Z,99276.40
2024-02-06T14:46:52.711Z,99271.20
2024-02-06T14:49:25.809Z,99265.40
2024-02-06T14:51:58.549Z,99265.20
2024-02-06T14:54:32.386Z,99275.20
2024-02-06T14:57:05.252Z,99272.80
2024-02-06T14:59:39.722Z,99260.40
2024-02-06T15:02:13.206Z,99250.00
2024-02-06T15:04:45.975Z,99267.80
2024-02-06T15:07:19.485Z,99249.00
2024-02-06T15:09:52.292Z,99256.60
2024-02-06T15:12:25.052Z,99248.40
2024-02-06T15:14:57.983Z,99241.20
2024-02-06T15:17:30.871Z,99243.40
2024-02-06T15:20:06.982Z,99233.00
2024-02-06T15:22:40.007Z,99235.40
2024-02-06T15:25:13.831Z,99244.40
2024-02-06T15:27:46.598Z,99228.20
2024-02-06T15:30:19.641Z,99228.20
2024-02-06T15:32:53.151Z,99232.80
2024-02-06T15:35:28.193Z,99223.80
2024-02-06T15:38:00.894Z,99214.60
2024-02-06T15:40:35.164Z,99221.60
2024-02-06T15:43:07.984Z,99212.80
2024-02-06T15:45:40.835Z,99205.60
2024-02-06T15:48:13.881Z,99193.00
2024-02-06T15:50:46.717Z,99200.80
2024-02-06T15:53:19.540Z,99197.60
2024-02-06T15:55:52.409Z,99194.40
2024-02-06T15:58:25.364Z,99194.80
2024-02-06T16:00:58.064Z,99197.80
2024-02-06T16:03:30.716Z,99189.40
2024-02-06T16:06:04.814Z,99185.20
2024-02-06T16:08:37.627Z,99183.60
2024-02-06T16:11:11.393Z,99185.20
2024-02-06T16:13:44.120Z,99181.60
2024-02-06T16:16:21.736Z,99183.80
2024-02-06T16:18:54.984Z,99189.00
2024-02-06T16:21:27.793Z,99190.40
2024-02-06T16:24:03.863Z,99195.00
2024-02-06T16:26:37.671Z,99189.20
2024-02-06T16:29:10.786Z,99189.60
2024-02-06T16:31:44.785Z,99181.60
2024-02-06T16:34:17.599Z,99182.00
2024-02-06T16:36:50.425Z,99193.60
2024-02-06T16:39:23.409Z,99192.20
2024-02-06T16:41:56.163Z,99189.00
2024-02-06T16:44:28.921Z,99180.20
2024-02-06T16:47:05.633Z,99181.00
2024-02-06T16:49:38.609Z,99178.40
2024-02-06T16:52:12.394Z,99170.60
2024-02-06T16:54:45.133Z,99174.00
2024-02-06T16:57:17.823Z,99173.60
2024-02-06T16:59:50.539Z,99164.20
2024-02-06T17:02:26.368Z,99165.00
2024-02-06T17:04:59.323Z,99158.40
2024-02-06T17:07:32.153Z,99160.20
2024-02-06T17:10:08.681Z,99165.00
2024-02-06T17:12:41.625Z,99172.00
2024-02-06T17:15:15.262Z,99160.60
2024-02-06T17:17:48.048Z,99172.20
2024-02-06T17:20:23.063Z,99165.60
2024-02-06T17:22:56.124Z,99169.00
2024-02-06T17:25:30.870Z,99160.20
2024-02-06T17:28:03.891Z,99159.60
2024-02-06T17:30:38.540Z,99162.40
2024-02-06T17:33:13.452Z,99168.00
2024-02-06T17:35:46.576Z,99169.80
2024-02-06T17:38:24.998Z,99170.80
2024-02-06T17:40:58.013Z,99157.80
2024-02-06T17:43:30.801Z,99147.80
2024-02-06T17:46:03.931Z,99156.60
2024-02-06T17:48:37.419Z,99144.40
2024-02-06T17:51:10.234Z,99141.40
2024-02-06T17:53:43.537Z,99136.80
2024-02-06T17:56:16.316Z,99137.00
2024-02-06T17:58:49.069Z,99133.40
2024-02-06T18:01:21.976Z,99135.00
2024-02-06T18:03:54.728Z,99138.40
2024-02-06T18:06:28.000Z,99133.40
2024-02-06T18:09:00.750Z,99124.20
2024-02-06T18:11:33.572Z,99126.20
2024-02-06T18:14:06.418Z,99126.80
2024-02-06T18:16:55.957Z,99125.40
2024-02-06T18:19:28.848Z,99122.60
2024-02-06T18:22:02.750Z,99110.00
2024-02-06T18:24:35.544Z,99115.00
2024-02-06T18:27:08.854Z,99123.20
2024-02-06T18:29:41.460Z,99110.60
2024-02-06T18:32:14.168Z,99113.00
2024-02-06T18:34:47.321Z,99107.00
2024-02-06T18:37:20.247Z,99106.00
2024-02-06T18:39:52.994Z,99103.20
2024-02-06T18:42:25.776Z,99095.60
2024-02-06T18:44:58.596Z,99094.60
2024-02-06T18:47:31.474Z,99083.60
2024-02-06T18:50:04.384Z,99091.00
2024-02-06T18:52:37.984Z,99083.00
2024-02-06T18:55:13.808Z,99083.80
2024-02-06T18:57:47.051Z,99084.20
2024-02-06T19:00:21.410Z,99077.00
2024-02-06T19:02:54.132Z,99075.80
2024-02-06T19:05:27.117Z,99069.40
2024-02-06T19:08:02.847Z,99062.20
2024-02-06T19:10:35.706Z,99056.60
2024-02-06T19:13:08.876Z,99050.80
2024-02-06T19:15:41.653Z,99060.20
2024-02-06T19:18:14.649Z,99058.00
2024-02-06T19:20:48.013Z,99057.00
2024-02-06T19:23:20.838Z,99043.60
2024-02-06T19:25:53.980Z,99056.40
2024-02-06T19:28:26.785Z,99037.40
2024-02-06T19:30:59.525Z,99037.40
2024-02-06T19:33:32.959Z,99036.20
2024-02-06T19:36:06.259Z,99040.20
2024-02-06T19:38:38.891Z,99038.60
2024-02-06T19:41:11.713Z,99035.20
2024-02-06T19:43:44.423Z,99047.40
2024-02-06T19:46:18.518Z,99037.00
2024-02-06T19:48:51.402Z,99035.80
2024-02-06T19:51:25.236Z,99033.20
2024-02-06T19:53:57.990Z,99031.80
2024-02-06T19:56:33.497Z,99029.20
2024-02-06T19:59:06.244Z,99026.00
2024-02-06T20:01:39.161Z,99026.80
2024-02-06T20:04:12.134Z,99012.40
2024-02-06T20:06:44.994Z,99015.60
2024-02-06T20:09:17.862Z,99016.80
2024-02-06T20:11:53.052Z,99011.80
2024-02-06T20:14:27.499Z,99010.80
2024-02-06T20:17:00.728Z,99013.80
2024-02-06T20:19:33.834Z,99012.20
2024-02-06T20:22:07.008Z,99016.80
2024-02-06T20:24:39.945Z,99021.80
2024-02-06T20:27:12.719Z,99010.20
2024-02-06T20:29:45.497Z,99013.80
2024-02-06T20:32:19.043Z,99003.40
2024-02-06T20:34:52.266Z,99009.20
2024-02-06T20:37:25.982Z,99002.80
2024-02-06T20:39:59.611Z,99004.00
2024-02-06T20:42:32.369Z,98996.40
2024-02-06T20:45:05.275Z,98988.80
2024-02-06T20:47:38.542Z,98994.40
2024-02-06T20:50:12.917Z,98977.00
2024-02-06T20:52:45.849Z,98973.00
2024-02-06T20:55:18.605Z,98970.60
2024-02-06T20:57:51.331Z,98970.60
2024-02-06T21:00:25.229Z,98971.80
2024-02-06T21:02:58.527Z,98971.80
2024-02-06T21:05:31.288Z,98966.80
2024-02-06T21:08:04.417Z,98967.80
2024-02-06T21:10:37.830Z,98968.80
2024-02-06T21:13:10.718Z,98963.00
2024-02-06T21:15:47.659Z,98951.20
2024-02-06T21:18:20.788Z,98957.60
2024-02-06T21:20:53.610Z,98953.00
2024-02-06T21:23:28.268Z,98946.80
2024-02-06T21:26:01.018Z,98943.60
2024-02-06T21:28:34.762Z,98945.60
2024-02-06T21:31:07.705Z,98940.60
2024-02-06T21:33:40.446Z,98938.40
2024-02-06T21:36:14.259Z,98931.00
2024-02-06T21:38:47.149Z,98933.80
2024-02-06T21:41:19.974Z,98929.40
2024-02-06T21:43:55.531Z,98926.60
2024-02-06T21:46:28.309Z,98920.20
2024-02-06T21:49:01.051Z,98912.60
2024-02-06T21:51:34.622Z,98917.80
2024-02-06T21:54:08.082Z,98914.00
2024-02-06T21:56:40.791Z,98907.40
2024-02-06T21:59:13.511Z,98913.80
2024-02-06T22:01:50.275Z,98919.00
2024-02-06T22:04:23.232Z,98910.40
2024-02-06T22:06:56.099Z,98917.40
2024-02-06T22:09:29.061Z,98913.80
2024-02-06T22:12:03.123Z,98913.60
2024-02-06T22:14:35.922Z,98918.00
2024-02-06T22:17:09.897Z,98918.60
2024-02-06T22:19:42.802Z,98918.80
2024-02-06T22:22:15.638Z,98926.00
2024-02-06T22:24:49.294Z,98916.40
2024-02-06T22:27:22.251Z,98915.80
2024-02-06T22:30:00.484Z,98907.80
2024-02-06T22:32:33.862Z,98901.40
2024-02-06T22:35:07.610Z,98900.80
2024-02-06T22:37:40.531Z,98906.20
2024-02-06T22:40:17.837Z,98891.20
2024-02-06T22:42:54.056Z,98888.80
2024-02-06T22:45:27.234Z,98892.60
2024-02-06T22:48:00.071Z,98886.00
2024-02-06T22:50:33.685Z,98883.60
2024-02-06T22:53:06.903Z,98882.20
2024-02-06T22:55:39.992Z,98889.20
2024-02-06T22:58:12.877Z,98885.20
2024-02-06T23:00:45.734Z,98881.60
2024-02-06T23:03:18.436Z,98883.40
2024-02-06T23:05:51.307Z,98874.80
2024-02-06T23:08:24.147Z,98874.60
2024-02-06T23:10:56.832Z,98860.40
2024-02-06T23:13:29.600Z,98860.40
2024-02-06T23:16:02.327Z,98857.60
2024-02-06T23:18:35.411Z,98850.40
2024-02-06T23:21:08.574Z,98846.20
2024-02-06T23:23:41.588Z,98847.40
2024-02-06T23:26:16.437Z,98842.40
2024-02-06T23:28:50.658Z,98847.20
2024-02-06T23:31:24.229Z,98841.60
2024-02-06T23:33:56.980Z,98843.20
2024-02-06T23:36:30.540Z,98839.60
2024-02-06T23:39:14.399Z,98841.60
2024-02-06T23:41:48.953Z,98842.20
2024-02-06T23:44:22.579Z,98842.20
2024-02-06T23:46:55.211Z,98839.40
2024-02-06T23:49:28.667Z,98833.60
2024-02-06T23:52:01.800Z,98826.20
2024-02-06T23:54:34.497Z,98823.20
2024-02-06T23:57:07.656Z,98826.60
2024-02-06T23:59:40.321Z,98821.00
